sensor_id;sensor_type;location;lat;lon;timestamp;temperature;humidity
3053;DHT22;1536;51.098;6.414;2023-10-09T00:01:03;17.90;99.90
3053;DHT22;1536;51.098;6.414;2023-10-09T00:03:35;17.90;99.90
3053;DHT22;1536;51.098;6.414;2023-10-09T00:06:05;17.90;99.90
3053;DHT22;1536;51.098;6.414;2023-10-09T00:08:33;17.90;99.90
3053;DHT22;1536;51.098;6.414;2023-10-09T00:11:02;17.90;99.90
3053;DHT22;1536;51.098;6.414;2023-10-09T00:13:42;17.90;99.90
3053;DHT22;1536;51.098;6.414;2023-10-09T00:16:17;17.90;99.90
3053;DHT22;1536;51.098;6.414;2023-10-09T00:18:49;17.80;99.90
3053;DHT22;1536;51.098;6.414;2023-10-09T00:21:17;17.80;99.90
3053;DHT22;1536;51.098;6.414;2023-10-09T00:23:46;17.80;99.90
3053;DHT22;1536;51.098;6.414;2023-10-09T00:26:18;17.80;99.90
3053;DHT22;1536;51.098;6.414;2023-10-09T00:28:46;17.80;99.90
3053;DHT22;1536;51.098;6.414;2023-10-09T00:31:13;17.80;99.90
3053;DHT22;1536;51.098;6.414;2023-10-09T00:33:41;17.70;99.90
3053;DHT22;1536;51.098;6.414;2023-10-09T00:36:08;17.70;99.90
3053;DHT22;1536;51.098;6.414;2023-10-09T00:38:36;17.60;99.90
3053;DHT22;1536;51.098;6.414;2023-10-09T00:41:11;17.60;99.90
3053;DHT22;1536;51.098;6.414;2023-10-09T00:43:45;17.60;99.90
3053;DHT22;1536;51.098;6.414;2023-10-09T00:46:16;17.60;99.90
3053;DHT22;1536;51.098;6.414;2023-10-09T00:48:52;17.50;99.90
3053;DHT22;1536;51.098;6.414;2023-10-09T00:51:19;17.50;99.90
3053;DHT22;1536;51.098;6.414;2023-10-09T00:53:54;17.50;99.90
3053;DHT22;1536;51.098;6.414;2023-10-09T00:56:21;17.50;99.90
3053;DHT22;1536;51.098;6.414;2023-10-09T00:59:03;17.50;99.90
3053;DHT22;1536;51.098;6.414;2023-10-09T01:01:34;17.60;99.90
3053;DHT22;1536;51.098;6.414;2023-10-09T01:04:02;17.60;99.90
3053;DHT22;1536;51.098;6.414;2023-10-09T01:06:42;17.60;99.90
3053;DHT22;1536;51.098;6.414;2023-10-09T01:09:12;17.70;99.90
3053;DHT22;1536;51.098;6.414;2023-10-09T01:11:40;17.70;99.90
3053;DHT22;1536;51.098;6.414;2023-10-09T01:14:29;17.70;99.90
3053;DHT22;1536;51.098;6.414;2023-10-09T01:16:56;17.80;99.90
3053;DHT22;1536;51.098;6.414;2023-10-09T01:19:25;17.80;99.90
3053;DHT22;1536;51.098;6.414;2023-10-09T01:21:53;17.90;99.90
3053;DHT22;1536;51.098;6.414;2023-10-09T01:24:21;17.90;99.90
3053;DHT22;1536;51.098;6.414;2023-10-09T01:26:52;17.90;99.90
3053;DHT22;1536;51.098;6.414;2023-10-09T01:29:21;17.90;99.90
3053;DHT22;1536;51.098;6.414;2023-10-09T01:31:54;17.90;99.90
3053;DHT22;1536;51.098;6.414;2023-10-09T01:34:21;17.90;99.90
3053;DHT22;1536;51.098;6.414;2023-10-09T01:37:04;17.90;99.90
3053;DHT22;1536;51.098;6.414;2023-10-09T01:39:38;17.90;99.90
3053;DHT22;1536;51.098;6.414;2023-10-09T01:42:07;17.90;99.90
3053;DHT22;1536;51.098;6.414;2023-10-09T01:44:35;17.90;99.90
3053;DHT22;1536;51.098;6.414;2023-10-09T01:47:09;17.90;99.90
3053;DHT22;1536;51.098;6.414;2023-10-09T01:49:39;17.90;99.90
3053;DHT22;1536;51.098;6.414;2023-10-09T01:52:09;18.00;99.90
3053;DHT22;1536;51.098;6.414;2023-10-09T01:54:38;18.00;99.90
3053;DHT22;1536;51.098;6.414;2023-10-09T01:57:06;17.90;99.90
3053;DHT22;1536;51.098;6.414;2023-10-09T01:59:35;17.90;99.90
3053;DHT22;1536;51.098;6.414;2023-10-09T02:02:04;17.90;99.90
3053;DHT22;1536;51.098;6.414;2023-10-09T02:04:50;17.90;99.90
3053;DHT22;1536;51.098;6.414;2023-10-09T02:07:18;17.90;99.90
3053;DHT22;1536;51.098;6.414;2023-10-09T02:09:54;17.90;99.90
3053;DHT22;1536;51.098;6.414;2023-10-09T02:12:21;17.90;99.90
3053;DHT22;1536;51.098;6.414;2023-10-09T02:14:50;17.80;99.90
3053;DHT22;1536;51.098;6.414;2023-10-09T02:17:19;17.80;99.90
3053;DHT22;1536;51.098;6.414;2023-10-09T02:19:50;17.80;99.90
3053;DHT22;1536;51.098;6.414;2023-10-09T02:22:18;17.80;99.90
3053;DHT22;1536;51.098;6.414;2023-10-09T02:24:45;17.80;99.90
3053;DHT22;1536;51.098;6.414;2023-10-09T02:27:25;17.80;99.90
3053;DHT22;1536;51.098;6.414;2023-10-09T02:30:11;17.80;99.90
3053;DHT22;1536;51.098;6.414;2023-10-09T02:33:10;17.70;99.90
3053;DHT22;1536;51.098;6.414;2023-10-09T02:35:37;17.80;99.90
3053;DHT22;1536;51.098;6.414;2023-10-09T02:38:08;17.70;99.90
3053;DHT22;1536;51.098;6.414;2023-10-09T02:40:40;17.70;99.90
3053;DHT22;1536;51.098;6.414;2023-10-09T02:43:26;17.70;99.90
3053;DHT22;1536;51.098;6.414;2023-10-09T02:45:53;17.70;99.90
3053;DHT22;1536;51.098;6.414;2023-10-09T02:48:24;17.80;99.90
3053;DHT22;1536;51.098;6.414;2023-10-09T02:50:52;17.80;99.90
3053;DHT22;1536;51.098;6.414;2023-10-09T02:53:19;17.80;99.90
3053;DHT22;1536;51.098;6.414;2023-10-09T02:55:55;17.80;99.90
3053;DHT22;1536;51.098;6.414;2023-10-09T02:58:38;17.90;99.90
3053;DHT22;1536;51.098;6.414;2023-10-09T03:01:10;17.90;99.90
3053;DHT22;1536;51.098;6.414;2023-10-09T03:03:40;17.90;99.90
3053;DHT22;1536;51.098;6.414;2023-10-09T03:06:11;17.90;99.90
3053;DHT22;1536;51.098;6.414;2023-10-09T03:08:38;17.90;99.90
3053;DHT22;1536;51.098;6.414;2023-10-09T03:11:07;17.90;99.90
3053;DHT22;1536;51.098;6.414;2023-10-09T03:13:40;18.00;99.90
3053;DHT22;1536;51.098;6.414;2023-10-09T03:16:08;18.00;99.90
3053;DHT22;1536;51.098;6.414;2023-10-09T03:18:37;18.00;99.90
3053;DHT22;1536;51.098;6.414;2023-10-09T03:21:06;18.00;99.90
3053;DHT22;1536;51.098;6.414;2023-10-09T03:23:33;18.00;99.90
3053;DHT22;1536;51.098;6.414;2023-10-09T03:26:00;18.10;99.90
3053;DHT22;1536;51.098;6.414;2023-10-09T03:28:26;18.10;99.90
3053;DHT22;1536;51.098;6.414;2023-10-09T03:30:53;18.10;99.90
3053;DHT22;1536;51.098;6.414;2023-10-09T03:33:21;18.10;99.90
3053;DHT22;1536;51.098;6.414;2023-10-09T03:35:49;18.10;99.90
3053;DHT22;1536;51.098;6.414;2023-10-09T03:38:17;18.10;99.90
3053;DHT22;1536;51.098;6.414;2023-10-09T03:40:44;18.20;99.90
3053;DHT22;1536;51.098;6.414;2023-10-09T03:43:13;18.20;99.90
3053;DHT22;1536;51.098;6.414;2023-10-09T03:45:40;18.20;99.90
3053;DHT22;1536;51.098;6.414;2023-10-09T03:48:14;18.20;99.90
3053;DHT22;1536;51.098;6.414;2023-10-09T03:50:47;18.20;99.90
3053;DHT22;1536;51.098;6.414;2023-10-09T03:53:14;18.20;99.90
3053;DHT22;1536;51.098;6.414;2023-10-09T03:55:43;18.20;99.90
3053;DHT22;1536;51.098;6.414;2023-10-09T03:58:10;18.30;99.90
3053;DHT22;1536;51.098;6.414;2023-10-09T04:00:39;18.20;99.90
3053;DHT22;1536;51.098;6.414;2023-10-09T04:03:10;18.20;99.90
3053;DHT22;1536;51.098;6.414;2023-10-09T04:05:40;18.30;99.90
3053;DHT22;1536;51.098;6.414;2023-10-09T04:08:08;18.20;99.90
3053;DHT22;1536;51.098;6.414;2023-10-09T04:10:39;18.30;99.90
3053;DHT22;1536;51.098;6.414;2023-10-09T04:13:21;18.20;99.90
3053;DHT22;1536;51.098;6.414;2023-10-09T04:15:52;18.30;99.90
3053;DHT22;1536;51.098;6.414;2023-10-09T04:18:20;18.30;99.90
3053;DHT22;1536;51.098;6.414;2023-10-09T04:20:54;18.30;99.90
3053;DHT22;1536;51.098;6.414;2023-10-09T04:23:39;18.30;99.90
3053;DHT22;1536;51.098;6.414;2023-10-09T04:26:19;18.30;99.90
3053;DHT22;1536;51.098;6.414;2023-10-09T04:28:47;18.30;99.90
3053;DHT22;1536;51.098;6.414;2023-10-09T04:31:18;18.30;99.90
3053;DHT22;1536;51.098;6.414;2023-10-09T04:33:45;18.30;99.90
3053;DHT22;1536;51.098;6.414;2023-10-09T04:36:19;18.30;99.90
3053;DHT22;1536;51.098;6.414;2023-10-09T04:38:54;18.30;99.90
3053;DHT22;1536;51.098;6.414;2023-10-09T04:41:41;18.30;99.90
3053;DHT22;1536;51.098;6.414;2023-10-09T04:44:19;18.30;99.90
3053;DHT22;1536;51.098;6.414;2023-10-09T04:46:49;18.30;99.90
3053;DHT22;1536;51.098;6.414;2023-10-09T04:49:30;18.30;99.90
3053;DHT22;1536;51.098;6.414;2023-10-09T04:52:11;18.30;99.90
3053;DHT22;1536;51.098;6.414;2023-10-09T04:54:44;18.30;99.90
3053;DHT22;1536;51.098;6.414;2023-10-09T04:57:30;18.20;99.90
3053;DHT22;1536;51.098;6.414;2023-10-09T05:00:06;18.20;99.90
3053;DHT22;1536;51.098;6.414;2023-10-09T05:02:47;18.20;99.90
3053;DHT22;1536;51.098;6.414;2023-10-09T05:05:20;18.20;99.90
3053;DHT22;1536;51.098;6.414;2023-10-09T05:08:01;18.10;99.90
3053;DHT22;1536;51.098;6.414;2023-10-09T05:10:44;18.10;99.90
3053;DHT22;1536;51.098;6.414;2023-10-09T05:13:31;18.10;99.90
3053;DHT22;1536;51.098;6.414;2023-10-09T05:16:11;18.10;99.90
3053;DHT22;1536;51.098;6.414;2023-10-09T05:18:44;18.10;99.90
3053;DHT22;1536;51.098;6.414;2023-10-09T05:21:21;18.10;99.90
3053;DHT22;1536;51.098;6.414;2023-10-09T05:24:10;18.10;99.90
3053;DHT22;1536;51.098;6.414;2023-10-09T05:26:46;18.10;99.90
3053;DHT22;1536;51.098;6.414;2023-10-09T05:29:19;18.10;99.90
3053;DHT22;1536;51.098;6.414;2023-10-09T05:32:02;18.10;99.90
3053;DHT22;1536;51.098;6.414;2023-10-09T05:34:31;18.10;99.90
3053;DHT22;1536;51.098;6.414;2023-10-09T05:36:59;18.10;99.90
3053;DHT22;1536;51.098;6.414;2023-10-09T05:39:43;18.10;99.90
3053;DHT22;1536;51.098;6.414;2023-10-09T05:42:09;18.10;99.90
3053;DHT22;1536;51.098;6.414;2023-10-09T05:44:42;18.10;99.90
3053;DHT22;1536;51.098;6.414;2023-10-09T05:47:39;18.10;99.90
3053;DHT22;1536;51.098;6.414;2023-10-09T05:50:18;18.00;99.90
3053;DHT22;1536;51.098;6.414;2023-10-09T05:53:00;18.00;99.90
3053;DHT22;1536;51.098;6.414;2023-10-09T05:55:45;18.10;99.90
3053;DHT22;1536;51.098;6.414;2023-10-09T05:58:29;18.10;99.90
3053;DHT22;1536;51.098;6.414;2023-10-09T06:01:13;18.00;99.90
3053;DHT22;1536;51.098;6.414;2023-10-09T06:03:59;18.10;99.90
3053;DHT22;1536;51.098;6.414;2023-10-09T06:06:40;18.10;99.90
3053;DHT22;1536;51.098;6.414;2023-10-09T06:09:10;18.10;99.90
3053;DHT22;1536;51.098;6.414;2023-10-09T06:12:00;18.10;99.90
3053;DHT22;1536;51.098;6.414;2023-10-09T06:14:58;18.10;99.90
3053;DHT22;1536;51.098;6.414;2023-10-09T06:17:44;18.10;99.90
3053;DHT22;1536;51.098;6.414;2023-10-09T06:20:17;18.20;99.90
3053;DHT22;1536;51.098;6.414;2023-10-09T06:23:16;18.20;99.90
3053;DHT22;1536;51.098;6.414;2023-10-09T06:25:49;18.30;99.90
3053;DHT22;1536;51.098;6.414;2023-10-09T06:28:17;18.30;99.90
3053;DHT22;1536;51.098;6.414;2023-10-09T06:30:44;18.30;99.90
3053;DHT22;1536;51.098;6.414;2023-10-09T06:33:12;18.30;99.90
3053;DHT22;1536;51.098;6.414;2023-10-09T06:35:46;18.30;99.90
3053;DHT22;1536;51.098;6.414;2023-10-09T06:38:20;18.30;99.90
3053;DHT22;1536;51.098;6.414;2023-10-09T06:40:48;18.30;99.90
3053;DHT22;1536;51.098;6.414;2023-10-09T06:43:32;18.30;99.90
3053;DHT22;1536;51.098;6.414;2023-10-09T06:46:03;18.40;99.90
3053;DHT22;1536;51.098;6.414;2023-10-09T06:48:47;18.40;99.90
3053;DHT22;1536;51.098;6.414;2023-10-09T06:51:23;18.40;99.90
3053;DHT22;1536;51.098;6.414;2023-10-09T06:54:07;18.40;99.90
3053;DHT22;1536;51.098;6.414;2023-10-09T06:56:35;18.40;99.90
3053;DHT22;1536;51.098;6.414;2023-10-09T06:59:20;18.40;99.90
3053;DHT22;1536;51.098;6.414;2023-10-09T07:01:50;18.50;99.90
3053;DHT22;1536;51.098;6.414;2023-10-09T07:04:30;18.50;99.90
3053;DHT22;1536;51.098;6.414;2023-10-09T07:07:27;18.50;99.90
3053;DHT22;1536;51.098;6.414;2023-10-09T07:10:00;18.50;99.90
3053;DHT22;1536;51.098;6.414;2023-10-09T07:12:44;18.50;99.90
3053;DHT22;1536;51.098;6.414;2023-10-09T07:15:18;18.50;99.90
3053;DHT22;1536;51.098;6.414;2023-10-09T07:18:02;18.60;99.90
3053;DHT22;1536;51.098;6.414;2023-10-09T07:20:44;18.60;99.90
3053;DHT22;1536;51.098;6.414;2023-10-09T07:23:26;18.60;99.90
3053;DHT22;1536;51.098;6.414;2023-10-09T07:26:04;18.60;99.90
3053;DHT22;1536;51.098;6.414;2023-10-09T07:29:03;18.60;99.90
3053;DHT22;1536;51.098;6.414;2023-10-09T07:31:42;18.60;99.90
3053;DHT22;1536;51.098;6.414;2023-10-09T07:34:11;18.60;99.90
3053;DHT22;1536;51.098;6.414;2023-10-09T07:36:55;18.70;99.90
3053;DHT22;1536;51.098;6.414;2023-10-09T07:39:24;18.70;99.90
3053;DHT22;1536;51.098;6.414;2023-10-09T07:42:00;18.70;99.90
3053;DHT22;1536;51.098;6.414;2023-10-09T07:44:41;18.70;99.90
3053;DHT22;1536;51.098;6.414;2023-10-09T07:47:18;18.70;99.90
3053;DHT22;1536;51.098;6.414;2023-10-09T07:49:48;18.70;99.90
3053;DHT22;1536;51.098;6.414;2023-10-09T07:52:18;18.70;99.90
3053;DHT22;1536;51.098;6.414;2023-10-09T07:54:49;18.80;99.90
3053;DHT22;1536;51.098;6.414;2023-10-09T07:57:28;18.80;99.90
3053;DHT22;1536;51.098;6.414;2023-10-09T08:00:05;18.80;99.90
3053;DHT22;1536;51.098;6.414;2023-10-09T08:02:38;18.80;99.90
3053;DHT22;1536;51.098;6.414;2023-10-09T08:05:05;18.80;99.90
3053;DHT22;1536;51.098;6.414;2023-10-09T08:07:44;18.80;99.90
3053;DHT22;1536;51.098;6.414;2023-10-09T08:10:21;18.80;99.90
3053;DHT22;1536;51.098;6.414;2023-10-09T08:13:05;18.90;99.90
3053;DHT22;1536;51.098;6.414;2023-10-09T08:15:46;18.90;99.90
3053;DHT22;1536;51.098;6.414;2023-10-09T08:18:19;18.90;99.90
3053;DHT22;1536;51.098;6.414;2023-10-09T08:20:53;18.90;99.90
3053;DHT22;1536;51.098;6.414;2023-10-09T08:23:34;18.90;99.90
3053;DHT22;1536;51.098;6.414;2023-10-09T08:26:16;18.90;99.90
3053;DHT22;1536;51.098;6.414;2023-10-09T08:28:55;18.90;99.90
3053;DHT22;1536;51.098;6.414;2023-10-09T08:31:41;18.90;99.90
3053;DHT22;1536;51.098;6.414;2023-10-09T08:34:12;18.90;99.90
3053;DHT22;1536;51.098;6.414;2023-10-09T08:36:51;18.90;99.90
3053;DHT22;1536;51.098;6.414;2023-10-09T08:39:19;18.90;99.90
3053;DHT22;1536;51.098;6.414;2023-10-09T08:41:54;19.00;99.90
3053;DHT22;1536;51.098;6.414;2023-10-09T08:44:24;19.00;99.90
3053;DHT22;1536;51.098;6.414;2023-10-09T08:46:54;19.00;99.90
3053;DHT22;1536;51.098;6.414;2023-10-09T08:49:20;19.10;99.90
3053;DHT22;1536;51.098;6.414;2023-10-09T08:51:47;19.10;99.90
3053;DHT22;1536;51.098;6.414;2023-10-09T08:54:14;19.10;99.90
3053;DHT22;1536;51.098;6.414;2023-10-09T08:56:42;19.20;99.90
3053;DHT22;1536;51.098;6.414;2023-10-09T08:59:16;19.20;99.90
3053;DHT22;1536;51.098;6.414;2023-10-09T09:01:45;19.20;99.90
3053;DHT22;1536;51.098;6.414;2023-10-09T09:04:35;19.20;99.90
3053;DHT22;1536;51.098;6.414;2023-10-09T09:07:03;19.20;99.90
3053;DHT22;1536;51.098;6.414;2023-10-09T09:09:30;19.20;99.90
3053;DHT22;1536;51.098;6.414;2023-10-09T09:11:59;19.30;99.90
3053;DHT22;1536;51.098;6.414;2023-10-09T09:14:37;19.30;99.90
3053;DHT22;1536;51.098;6.414;2023-10-09T09:17:06;19.30;99.90
3053;DHT22;1536;51.098;6.414;2023-10-09T09:19:37;19.30;99.90
3053;DHT22;1536;51.098;6.414;2023-10-09T09:22:04;19.40;99.90
3053;DHT22;1536;51.098;6.414;2023-10-09T09:24:38;19.40;99.90
3053;DHT22;1536;51.098;6.414;2023-10-09T09:27:11;19.40;99.90
3053;DHT22;1536;51.098;6.414;2023-10-09T09:29:45;19.40;99.90
3053;DHT22;1536;51.098;6.414;2023-10-09T09:32:27;19.50;99.90
3053;DHT22;1536;51.098;6.414;2023-10-09T09:34:56;19.50;99.90
3053;DHT22;1536;51.098;6.414;2023-10-09T09:37:27;19.50;99.90
3053;DHT22;1536;51.098;6.414;2023-10-09T09:39:57;19.60;99.90
3053;DHT22;1536;51.098;6.414;2023-10-09T09:42:27;19.60;99.90
3053;DHT22;1536;51.098;6.414;2023-10-09T09:45:00;19.60;99.90
3053;DHT22;1536;51.098;6.414;2023-10-09T09:47:27;19.60;99.90
3053;DHT22;1536;51.098;6.414;2023-10-09T09:49:55;19.70;99.90
3053;DHT22;1536;51.098;6.414;2023-10-09T09:52:28;19.70;99.90
3053;DHT22;1536;51.098;6.414;2023-10-09T09:54:55;19.80;99.90
3053;DHT22;1536;51.098;6.414;2023-10-09T09:57:23;19.90;99.90
3053;DHT22;1536;51.098;6.414;2023-10-09T09:59:53;19.90;99.90
3053;DHT22;1536;51.098;6.414;2023-10-09T10:02:28;19.90;99.90
3053;DHT22;1536;51.098;6.414;2023-10-09T10:05:00;20.00;99.90
3053;DHT22;1536;51.098;6.414;2023-10-09T10:07:31;20.00;99.90
3053;DHT22;1536;51.098;6.414;2023-10-09T10:10:34;20.00;99.90
3053;DHT22;1536;51.098;6.414;2023-10-09T10:13:03;20.10;99.90
3053;DHT22;1536;51.098;6.414;2023-10-09T10:15:58;20.10;99.90
3053;DHT22;1536;51.098;6.414;2023-10-09T10:18:30;20.10;99.90
3053;DHT22;1536;51.098;6.414;2023-10-09T10:21:10;20.10;99.90
3053;DHT22;1536;51.098;6.414;2023-10-09T10:23:40;20.20;99.90
3053;DHT22;1536;51.098;6.414;2023-10-09T10:26:17;20.20;99.90
3053;DHT22;1536;51.098;6.414;2023-10-09T10:29:13;20.20;99.90
3053;DHT22;1536;51.098;6.414;2023-10-09T10:31:55;20.30;99.90
3053;DHT22;1536;51.098;6.414;2023-10-09T10:34:23;20.30;99.90
3053;DHT22;1536;51.098;6.414;2023-10-09T10:36:51;20.40;99.90
3053;DHT22;1536;51.098;6.414;2023-10-09T10:39:24;20.50;99.90
3053;DHT22;1536;51.098;6.414;2023-10-09T10:42:08;20.40;99.90
3053;DHT22;1536;51.098;6.414;2023-10-09T10:44:40;20.50;99.90
3053;DHT22;1536;51.098;6.414;2023-10-09T10:47:10;20.50;99.90
3053;DHT22;1536;51.098;6.414;2023-10-09T10:49:54;20.60;99.90
3053;DHT22;1536;51.098;6.414;2023-10-09T10:52:25;20.60;99.90
3053;DHT22;1536;51.098;6.414;2023-10-09T10:55:12;20.60;99.90
3053;DHT22;1536;51.098;6.414;2023-10-09T10:58:15;20.70;99.90
3053;DHT22;1536;51.098;6.414;2023-10-09T11:00:52;20.70;99.90
3053;DHT22;1536;51.098;6.414;2023-10-09T11:03:37;20.80;99.90
3053;DHT22;1536;51.098;6.414;2023-10-09T11:06:26;20.80;99.90
3053;DHT22;1536;51.098;6.414;2023-10-09T11:09:03;20.80;99.90
3053;DHT22;1536;51.098;6.414;2023-10-09T11:11:36;20.80;99.90
3053;DHT22;1536;51.098;6.414;2023-10-09T11:14:08;20.90;99.90
3053;DHT22;1536;51.098;6.414;2023-10-09T11:16:39;20.90;99.90
3053;DHT22;1536;51.098;6.414;2023-10-09T11:19:09;20.90;99.90
3053;DHT22;1536;51.098;6.414;2023-10-09T11:21:50;21.00;99.90
3053;DHT22;1536;51.098;6.414;2023-10-09T11:24:25;21.00;99.90
3053;DHT22;1536;51.098;6.414;2023-10-09T11:26:52;21.00;99.90
3053;DHT22;1536;51.098;6.414;2023-10-09T11:29:22;21.10;99.90
3053;DHT22;1536;51.098;6.414;2023-10-09T11:32:19;21.10;99.90
3053;DHT22;1536;51.098;6.414;2023-10-09T11:34:45;21.10;99.90
3053;DHT22;1536;51.098;6.414;2023-10-09T11:37:19;21.10;99.90
3053;DHT22;1536;51.098;6.414;2023-10-09T11:40:04;21.10;99.90
3053;DHT22;1536;51.098;6.414;2023-10-09T11:42:49;21.10;99.90
3053;DHT22;1536;51.098;6.414;2023-10-09T11:45:20;21.10;99.90
3053;DHT22;1536;51.098;6.414;2023-10-09T11:47:50;21.20;99.90
3053;DHT22;1536;51.098;6.414;2023-10-09T11:50:38;21.20;99.90
3053;DHT22;1536;51.098;6.414;2023-10-09T11:53:10;21.20;99.90
3053;DHT22;1536;51.098;6.414;2023-10-09T11:55:46;21.20;99.90
3053;DHT22;1536;51.098;6.414;2023-10-09T11:58:14;21.20;99.90
3053;DHT22;1536;51.098;6.414;2023-10-09T12:03:16;21.30;99.90
3053;DHT22;1536;51.098;6.414;2023-10-09T12:05:47;21.30;99.90
3053;DHT22;1536;51.098;6.414;2023-10-09T12:08:15;21.30;99.90
3053;DHT22;1536;51.098;6.414;2023-10-09T12:10:42;21.30;99.90
3053;DHT22;1536;51.098;6.414;2023-10-09T12:13:09;21.40;99.90
3053;DHT22;1536;51.098;6.414;2023-10-09T12:15:36;21.40;99.90
3053;DHT22;1536;51.098;6.414;2023-10-09T12:18:06;21.40;99.90
3053;DHT22;1536;51.098;6.414;2023-10-09T12:20:40;21.40;99.90
3053;DHT22;1536;51.098;6.414;2023-10-09T12:23:07;21.50;99.90
3053;DHT22;1536;51.098;6.414;2023-10-09T12:25:40;21.50;99.90
3053;DHT22;1536;51.098;6.414;2023-10-09T12:28:10;21.50;99.90
3053;DHT22;1536;51.098;6.414;2023-10-09T12:30:38;21.50;99.90
3053;DHT22;1536;51.098;6.414;2023-10-09T12:33:06;21.50;99.90
3053;DHT22;1536;51.098;6.414;2023-10-09T12:35:36;21.60;99.90
3053;DHT22;1536;51.098;6.414;2023-10-09T12:38:03;21.60;99.90
3053;DHT22;1536;51.098;6.414;2023-10-09T12:40:34;21.60;99.90
3053;DHT22;1536;51.098;6.414;2023-10-09T12:43:03;21.60;99.90
3053;DHT22;1536;51.098;6.414;2023-10-09T12:45:33;21.60;99.90
3053;DHT22;1536;51.098;6.414;2023-10-09T12:48:00;21.70;99.90
3053;DHT22;1536;51.098;6.414;2023-10-09T12:50:29;21.70;99.90
3053;DHT22;1536;51.098;6.414;2023-10-09T12:52:59;21.70;99.90
3053;DHT22;1536;51.098;6.414;2023-10-09T12:55:34;21.70;99.90
3053;DHT22;1536;51.098;6.414;2023-10-09T12:58:04;21.70;99.90
3053;DHT22;1536;51.098;6.414;2023-10-09T13:00:33;21.70;99.90
3053;DHT22;1536;51.098;6.414;2023-10-09T13:03:04;21.70;99.90
3053;DHT22;1536;51.098;6.414;2023-10-09T13:05:42;21.70;99.90
3053;DHT22;1536;51.098;6.414;2023-10-09T13:08:18;21.70;99.90
3053;DHT22;1536;51.098;6.414;2023-10-09T13:10:47;21.70;99.90
3053;DHT22;1536;51.098;6.414;2023-10-09T13:13:16;21.70;99.90
3053;DHT22;1536;51.098;6.414;2023-10-09T13:15:43;21.70;99.90
3053;DHT22;1536;51.098;6.414;2023-10-09T13:18:09;21.70;99.90
3053;DHT22;1536;51.098;6.414;2023-10-09T13:20:37;21.70;99.90
3053;DHT22;1536;51.098;6.414;2023-10-09T13:23:04;21.80;99.90
3053;DHT22;1536;51.098;6.414;2023-10-09T13:25:32;21.80;99.90
3053;DHT22;1536;51.098;6.414;2023-10-09T13:28:05;21.70;99.90
3053;DHT22;1536;51.098;6.414;2023-10-09T13:30:37;21.80;99.90
3053;DHT22;1536;51.098;6.414;2023-10-09T13:33:05;21.80;99.90
3053;DHT22;1536;51.098;6.414;2023-10-09T13:35:32;21.80;99.90
3053;DHT22;1536;51.098;6.414;2023-10-09T13:38:03;21.70;99.90
3053;DHT22;1536;51.098;6.414;2023-10-09T13:40:33;21.70;99.90
3053;DHT22;1536;51.098;6.414;2023-10-09T13:43:03;21.70;99.90
3053;DHT22;1536;51.098;6.414;2023-10-09T13:45:38;21.70;99.90
3053;DHT22;1536;51.098;6.414;2023-10-09T13:48:04;21.70;99.90
3053;DHT22;1536;51.098;6.414;2023-10-09T13:50:36;21.70;99.90
3053;DHT22;1536;51.098;6.414;2023-10-09T13:53:08;21.70;99.90
3053;DHT22;1536;51.098;6.414;2023-10-09T13:55:37;21.60;99.90
3053;DHT22;1536;51.098;6.414;2023-10-09T13:58:08;21.60;99.90
3053;DHT22;1536;51.098;6.414;2023-10-09T14:00:40;21.60;99.90
3053;DHT22;1536;51.098;6.414;2023-10-09T14:03:08;21.60;99.90
3053;DHT22;1536;51.098;6.414;2023-10-09T14:05:39;21.60;99.90
3053;DHT22;1536;51.098;6.414;2023-10-09T14:08:19;21.60;99.90
3053;DHT22;1536;51.098;6.414;2023-10-09T14:10:47;21.60;99.90
3053;DHT22;1536;51.098;6.414;2023-10-09T14:13:14;21.60;99.90
3053;DHT22;1536;51.098;6.414;2023-10-09T14:15:44;21.60;99.90
3053;DHT22;1536;51.098;6.414;2023-10-09T14:18:11;21.60;99.90
3053;DHT22;1536;51.098;6.414;2023-10-09T14:20:38;21.50;99.90
3053;DHT22;1536;51.098;6.414;2023-10-09T14:23:07;21.60;99.90
3053;DHT22;1536;51.098;6.414;2023-10-09T14:25:36;21.50;99.90
3053;DHT22;1536;51.098;6.414;2023-10-09T14:28:05;21.50;99.90
3053;DHT22;1536;51.098;6.414;2023-10-09T14:30:33;21.50;99.90
3053;DHT22;1536;51.098;6.414;2023-10-09T14:33:09;21.60;99.90
3053;DHT22;1536;51.098;6.414;2023-10-09T14:35:39;21.50;99.90
3053;DHT22;1536;51.098;6.414;2023-10-09T14:38:06;21.50;99.90
3053;DHT22;1536;51.098;6.414;2023-10-09T14:40:37;21.60;99.90
3053;DHT22;1536;51.098;6.414;2023-10-09T14:43:07;21.50;99.90
3053;DHT22;1536;51.098;6.414;2023-10-09T14:45:36;21.60;99.90
3053;DHT22;1536;51.098;6.414;2023-10-09T14:48:03;21.60;99.90
3053;DHT22;1536;51.098;6.414;2023-10-09T14:50:32;21.60;99.90
3053;DHT22;1536;51.098;6.414;2023-10-09T14:53:04;21.60;99.90
3053;DHT22;1536;51.098;6.414;2023-10-09T14:55:30;21.60;99.90
3053;DHT22;1536;51.098;6.414;2023-10-09T14:57:57;21.60;99.90
3053;DHT22;1536;51.098;6.414;2023-10-09T15:00:25;21.60;99.90
3053;DHT22;1536;51.098;6.414;2023-10-09T15:02:52;21.50;99.90
3053;DHT22;1536;51.098;6.414;2023-10-09T15:05:19;21.50;99.90
3053;DHT22;1536;51.098;6.414;2023-10-09T15:07:49;21.50;99.90
3053;DHT22;1536;51.098;6.414;2023-10-09T15:10:15;21.50;99.90
3053;DHT22;1536;51.098;6.414;2023-10-09T15:12:43;21.50;99.90
3053;DHT22;1536;51.098;6.414;2023-10-09T15:15:12;21.40;99.90
3053;DHT22;1536;51.098;6.414;2023-10-09T15:17:40;21.40;99.90
3053;DHT22;1536;51.098;6.414;2023-10-09T15:20:10;21.40;99.90
3053;DHT22;1536;51.098;6.414;2023-10-09T15:22:39;21.40;99.90
3053;DHT22;1536;51.098;6.414;2023-10-09T15:25:09;21.50;99.90
3053;DHT22;1536;51.098;6.414;2023-10-09T15:27:39;21.40;99.90
3053;DHT22;1536;51.098;6.414;2023-10-09T15:30:07;21.50;99.90
3053;DHT22;1536;51.098;6.414;2023-10-09T15:35:07;21.40;99.90
3053;DHT22;1536;51.098;6.414;2023-10-09T15:37:35;21.40;99.90
3053;DHT22;1536;51.098;6.414;2023-10-09T15:40:04;21.30;99.90
3053;DHT22;1536;51.098;6.414;2023-10-09T15:42:41;21.30;99.90
3053;DHT22;1536;51.098;6.414;2023-10-09T15:45:08;21.20;99.90
3053;DHT22;1536;51.098;6.414;2023-10-09T15:47:37;21.20;99.90
3053;DHT22;1536;51.098;6.414;2023-10-09T15:50:06;21.20;99.90
3053;DHT22;1536;51.098;6.414;2023-10-09T15:52:36;21.10;99.90
3053;DHT22;1536;51.098;6.414;2023-10-09T15:55:05;21.10;99.90
3053;DHT22;1536;51.098;6.414;2023-10-09T15:57:38;21.00;99.90
3053;DHT22;1536;51.098;6.414;2023-10-09T16:00:08;21.00;99.90
3053;DHT22;1536;51.098;6.414;2023-10-09T16:02:39;21.00;99.90
3053;DHT22;1536;51.098;6.414;2023-10-09T16:05:08;20.90;99.90
3053;DHT22;1536;51.098;6.414;2023-10-09T16:07:37;20.90;99.90
3053;DHT22;1536;51.098;6.414;2023-10-09T16:10:04;20.90;99.90
3053;DHT22;1536;51.098;6.414;2023-10-09T16:12:33;20.80;99.90
3053;DHT22;1536;51.098;6.414;2023-10-09T16:15:00;20.80;99.90
3053;DHT22;1536;51.098;6.414;2023-10-09T16:17:28;20.80;99.90
3053;DHT22;1536;51.098;6.414;2023-10-09T16:19:55;20.70;99.90
3053;DHT22;1536;51.098;6.414;2023-10-09T16:22:21;20.70;99.90
3053;DHT22;1536;51.098;6.414;2023-10-09T16:24:50;20.70;99.90
3053;DHT22;1536;51.098;6.414;2023-10-09T16:27:17;20.60;99.90
3053;DHT22;1536;51.098;6.414;2023-10-09T16:29:49;20.60;99.90
3053;DHT22;1536;51.098;6.414;2023-10-09T16:32:16;20.60;99.90
3053;DHT22;1536;51.098;6.414;2023-10-09T16:34:48;20.50;99.90
3053;DHT22;1536;51.098;6.414;2023-10-09T16:37:15;20.50;99.90
3053;DHT22;1536;51.098;6.414;2023-10-09T16:39:43;20.50;99.90
3053;DHT22;1536;51.098;6.414;2023-10-09T16:42:10;20.40;99.90
3053;DHT22;1536;51.098;6.414;2023-10-09T16:44:39;20.40;99.90